Aeroporto :
LOGIN :

Iscrizione | Disclaimer

   EN    FR    IT 

 










Sommario :    VFR   VFR Marginale   IFR   IFR Intensivo   IFR Molto Intensivo
Visibilità : 
Base nubi : 
>= 8 km
>= 3000ft
5 / 8 km
1000 / 3000 ft
1500m / 5 km
500 / 1000 ft
800 / 1500m
200 / 500 ft
< 800m
< 200 ft
Simboli :   Temporali  Nebbia  Neve Forte  Precipitazioni Forti  Vento > 20 kt
SIGMETs :   Varie  Temporali  Ghiacco  Turbolenza  Onda orograficha  Ceneri Vulcaniche






- Altitudine del aeroporto : 22 ft
- Codice IATA : FSS


EGQK - RAF Kinloss

ULTIMO METAR :
  • 272350Z AUTO 21005KT 9999 SCT050/// BKN080/// 03/00 Q1002 RERA

METARs OBSOLETI :
  • 272250Z AUTO 21007KT 9999 BKN070/// 03/M00 Q1002
  • 272150Z AUTO 21009KT 9999 FEW130/// 03/M01 Q1002

TAF TAF EGQK
Valido dal 27 a 12 ore il 28 a 06 ore UTC


271040Z 2712/2806 25014KT 9999 SCT025
TEMPO 2712/2720 27017G27KT
PROB30
TEMPO 2712/2717 3000 SHRASN SCT006 SCT012CB
PROB30
TEMPO 2722/2724 6000 -RASN SCT022



MetMap, La meteo Aeronautica in un colpo d'occhio ! - Copyright ORBIFLY Dicembre 2007 - Disclaimer

ORBIFLY MET'MAP TEAM :

Programmazione e sviluppo : Alexandra Zaïnal
Concezione : Baudouin d'Aumeries
Aiuto per la programmazione : Marc-Olivier Méhu
Supporto tecnico e logistico : Manuel Goepfert
Aiuto per la traduzione : Arnaldo La Scala

Contatto : metmap@orbifly.com




FONTI E CREDITI :

   NOAA